Tuesday, August 21, 2018, 9:54 AM EDT
Back to Local

KFZY, Fulton Oswego County Airport

Location: Fulton, NY, United States Lat: 43.35
Local Time: 9:54 AM EDT (13:54 GMT) Lon: -76.383
Time Zone: US/Eastern Elev: 475 ft

Show me the last for .
Show Coded

Time T Td Feel RH Dir Speed Gust Alt SLP Vis Weather Sky Remarks
2018-08-21 08:54 70 61 - 73 Variable 6 - 29.99 29.98 10 OVC025 None
2018-08-21 08:05 68 61 - 78 Variable 5 - 30.01 - 10 BKN029 OVC044 None
2018-08-21 07:54 67 61 - 81 Variable 3 - 30.01 30.00 10 SCT030 OVC044 6-hr Min Temp (8am): 64.0°F
6-hr Max Temp (8am): 68.0°F
2018-08-21 06:54 65 60 - 84 Variable 3 - 30.01 30.00 10 OVC055 None
2018-08-21 05:54 65 60 - 84 Variable 3 - 30.02 30.01 10 BKN055 None
2018-08-21 04:54 65 59 - 81 - Calm - 30.03 30.02 10 CLR None
2018-08-21 03:54 65 59 - 81 - Calm - 30.03 30.02 10 CLR None
2018-08-21 02:54 66 59 - 78 - Calm - 30.05 30.04 10 CLR None
2018-08-21 00:54 68 59 - 72 Variable 3 - 30.07 30.06 10 CLR 24-hr Min Temp (1am): 61.0°F
24-hr Max Temp (1am): 78.1°F
2018-08-20 23:54 69 59 - 70 Variable 3 - 30.07 30.06 10 BKN055 None
2018-08-20 22:54 68 60 - 75 - Calm - 30.08 30.07 10 SCT070 6-hr Precip Total (11pm): 0.00"
2018-08-20 21:54 69 59 - 70 Variable 3 - 30.08 30.08 10 CLR 1-hr Precip Total: Trace
2018-08-20 20:54 70 60 - 70 - Calm - 30.09 30.08 10 -RA OVC075 1-hr Precip Total: Trace
2018-08-20 19:54 70 60 - 70 - Calm - 30.07 30.06 10 CLR 6-hr Min Temp (8pm): 70.0°F
6-hr Max Temp (8pm): 78.1°F
2018-08-20 18:54 75 60 78 59 - Calm - 30.07 30.06 10 FEW050 None
2018-08-20 17:54 77 60 79 55 - Calm - 30.08 30.07 10 CLR None
2018-08-20 16:54 77 59 79 53 Variable 3 - 30.08 30.07 10 CLR None
2018-08-20 15:54 78 59 80 51 Variable 5 - 30.08 30.07 10 CLR None
2018-08-20 14:54 78 59 80 51 Variable 7 - 30.09 30.08 10 CLR None
2018-08-20 13:54 77 59 79 53 Variable 5 - 30.11 30.11 10 CLR 6-hr Min Temp (2pm): 66.0°F
6-hr Max Temp (2pm): 77.0°F
2018-08-20 12:54 76 60 78 58 150° 8 - 30.13 30.13 10 FEW033 None
2018-08-20 11:54 75 57 77 53 Variable 5 - 30.15 30.15 10 CLR None
2018-08-20 10:54 73 57 77 57 140° 8 - 30.16 30.16 10 CLR None

Support USWX by starting your Amazon purchase here.